Terminal Aerodrome Forecast
Issued by NWS Cleveland, OH

Home | Current Version | Previous Version | Graphics & Text | Print | Product List | Glossary On
Versions: 1 2 3 4 5 6 7 8 9 10 11 12 13 14 15 16 17 18 19 20
384
FTUS41 KCLE 171137
TAFCAK
TAF
KCAK 171137Z 1712/1812 17012KT 3SM -SHRA BR BKN015
      TEMPO 1712/1716 2SM -SHRA BR OVC005
     FM172100 25012G20KT P6SM OVC015
     FM180300 27009KT 5SM BR VCSH OVC005=

USA.gov is the U.S. government's official web portal to all federal, state and local government web resources and services.